Time;durP1;ratioP1;P1;durP2;ratioP2;P2;SDS_P1;SDS_P2;PMS_P1;PMS_P2;Temp;Humidity;BMP_temperature;BMP_pressure;BME280_temperature;BME280_humidity;BME280_pressure;Samples;Min_cycle;Max_cycle;Signal;HPM_P1;HPM_P2
2024/02/18 00:02:16;;;;;;;10.07;9.07;;;6.00;99.90;;;6.70;100.00;99609.72;10302486;28;20238;-67
2024/02/18 00:07:20;;;;;;;8.80;7.93;;;6.00;99.90;;;6.90;100.00;99613.38;10301470;28;20707;-67
2024/02/18 00:12:24;;;;;;;10.33;8.83;;;6.00;99.90;;;6.83;100.00;99621.13;10308268;28;20234;-67
2024/02/18 00:17:29;;;;;;;10.07;9.03;;;6.10;99.90;;;6.92;100.00;99612.75;10314263;28;20229;-67
2024/02/18 00:22:32;;;;;;;8.93;8.23;;;6.20;99.90;;;6.96;100.00;99611.44;10315064;28;20223;-67
2024/02/18 00:27:35;;;;;;;10.30;9.30;;;6.20;99.90;;;6.84;100.00;99617.81;10315183;28;20222;-67
2024/02/18 00:32:40;;;;;;;10.80;9.80;;;6.20;99.90;;;6.76;100.00;99607.81;10314069;28;20838;-67
2024/02/18 00:37:43;;;;;;;11.83;10.63;;;6.10;99.90;;;6.67;100.00;99600.91;10313413;28;20416;-67
2024/02/18 00:42:46;;;;;;;10.10;9.10;;;6.00;99.90;;;6.63;100.00;99597.13;10313750;28;20790;-67
2024/02/18 00:47:51;;;;;;;12.60;10.47;;;6.00;99.90;;;6.74;100.00;99606.75;10314489;28;20277;-67
2024/02/18 00:52:54;;;;;;;11.67;10.20;;;6.10;99.90;;;6.98;100.00;99599.75;10312849;28;20309;-67
2024/02/18 00:57:57;;;;;;;10.27;9.23;;;6.30;99.90;;;7.04;100.00;99587.69;10310010;28;20231;-67
2024/02/18 01:03:02;;;;;;;10.13;9.23;;;6.30;99.90;;;7.08;100.00;99591.41;10313800;28;20226;-68
2024/02/18 01:08:06;;;;;;;9.57;8.70;;;6.30;99.90;;;6.98;100.00;99594.66;10312104;28;20231;-67
2024/02/18 01:13:09;;;;;;;10.47;9.53;;;6.20;99.90;;;6.85;100.00;99602.75;10314770;28;20350;-68
2024/02/18 01:18:16;;;;;;;10.10;9.03;;;6.20;99.90;;;6.92;100.00;99591.53;10312064;28;20699;-68
2024/02/18 01:23:19;;;;;;;10.40;9.50;;;6.20;99.90;;;6.93;100.00;99593.34;10315010;28;20594;-68
2024/02/18 01:28:24;;;;;;;11.43;10.33;;;6.20;99.90;;;6.97;100.00;99595.44;10311098;28;20238;-68
2024/02/18 01:33:28;;;;;;;10.20;9.30;;;6.20;99.90;;;6.93;100.00;99603.50;10311903;28;20318;-67
2024/02/18 01:38:32;;;;;;;11.37;9.77;;;6.20;99.90;;;7.02;100.00;99594.25;10312484;28;20242;-68
2024/02/18 01:43:36;;;;;;;10.70;9.70;;;6.20;99.90;;;7.00;100.00;99580.47;10310928;28;20774;-68
2024/02/18 01:48:40;;;;;;;11.30;9.83;;;6.20;99.90;;;6.85;100.00;99577.31;10310128;28;20223;-67
2024/02/18 01:53:44;;;;;;;11.20;10.10;;;6.20;99.90;;;6.74;100.00;99580.44;10312395;28;20565;-68
2024/02/18 01:58:47;;;;;;;13.23;11.93;;;6.10;99.90;;;6.77;100.00;99580.75;10310248;28;20237;-68
2024/02/18 02:03:55;;;;;;;12.07;10.97;;;6.10;99.90;;;6.88;100.00;99576.72;10311026;28;20296;-68
2024/02/18 02:08:58;;;;;;;12.37;11.07;;;6.20;99.90;;;6.92;100.00;99571.19;10311887;28;20235;-68
2024/02/18 02:14:02;;;;;;;10.13;8.97;;;6.10;99.90;;;6.85;100.00;99579.88;10313931;28;20604;-67
2024/02/18 02:19:07;;;;;;;12.93;11.60;;;6.10;99.90;;;6.83;100.00;99576.25;10311184;28;20234;-68
2024/02/18 02:24:10;;;;;;;14.40;13.00;;;6.10;99.90;;;6.87;100.00;99572.41;10310682;28;20258;-67
2024/02/18 02:29:16;;;;;;;14.00;12.53;;;6.20;99.90;;;6.88;100.00;99566.56;10313035;28;20234;-67
2024/02/18 02:34:19;;;;;;;13.97;12.07;;;6.20;99.90;;;6.92;100.00;99566.09;10307169;28;20599;-67
2024/02/18 02:39:22;;;;;;;13.97;12.57;;;6.20;99.90;;;7.07;100.00;99559.09;10309074;28;20223;-67
2024/02/18 02:44:27;;;;;;;15.47;13.00;;;6.30;99.90;;;7.01;100.00;99546.69;10312495;28;20253;-68
2024/02/18 02:49:30;;;;;;;13.30;12.07;;;6.30;99.90;;;7.10;100.00;99541.63;10311386;28;20242;-68
2024/02/18 02:54:35;;;;;;;11.97;10.87;;;6.30;99.90;;;6.88;100.00;99538.59;10309111;28;20238;-67
2024/02/18 02:59:40;;;;;;;12.97;11.70;;;6.20;99.90;;;6.88;100.00;99546.22;10308554;28;20297;-67
2024/02/18 03:04:43;;;;;;;13.70;12.13;;;6.20;99.90;;;6.91;100.00;99538.91;10300982;28;20580;-67
2024/02/18 03:09:46;;;;;;;12.73;11.53;;;6.30;99.90;;;6.92;100.00;99526.34;10306984;28;20761;-67
2024/02/18 03:14:51;;;;;;;13.40;12.03;;;6.30;99.90;;;6.91;100.00;99533.81;10309701;28;20227;-67
2024/02/18 03:19:54;;;;;;;13.57;12.27;;;6.20;99.90;;;6.92;100.00;99533.06;10308542;28;20235;-67
2024/02/18 03:24:59;;;;;;;13.70;12.40;;;6.10;99.90;;;6.76;100.00;99533.22;10309515;28;20238;-67
2024/02/18 03:30:06;;;;;;;13.27;11.87;;;6.10;99.90;;;6.76;100.00;99538.31;10304079;28;20278;-68
2024/02/18 03:35:10;;;;;;;12.83;11.63;;;6.00;99.90;;;6.70;100.00;99533.50;10310492;28;20230;-67
2024/02/18 03:40:13;;;;;;;11.90;10.77;;;5.90;99.90;;;6.55;100.00;99531.97;10305890;28;20238;-67
2024/02/18 03:45:18;;;;;;;11.73;10.57;;;5.80;99.90;;;6.49;100.00;99523.75;10306329;28;20234;-67
2024/02/18 03:50:21;;;;;;;15.63;13.67;;;5.70;99.90;;;6.16;100.00;99522.16;10307696;28;20313;-67
2024/02/18 03:55:26;;;;;;;12.93;11.70;;;5.50;99.90;;;6.06;100.00;99521.97;10304255;28;20231;-67
2024/02/18 04:00:31;;;;;;;14.33;12.20;;;5.40;99.90;;;6.10;100.00;99513.94;10309187;28;20226;-67
2024/02/18 04:05:34;;;;;;;13.67;12.33;;;5.40;99.90;;;6.04;100.00;99514.22;10306252;28;20239;-67
2024/02/18 04:10:37;;;;;;;12.13;11.13;;;5.40;99.90;;;6.00;100.00;99518.81;10306418;28;20218;-67
2024/02/18 04:15:42;;;;;;;12.87;11.57;;;5.30;99.90;;;5.90;100.00;99518.59;10306647;28;20735;-68
2024/02/18 04:20:46;;;;;;;14.73;12.90;;;5.20;99.90;;;5.90;100.00;99516.06;10304791;28;20234;-68
2024/02/18 04:25:49;;;;;;;12.70;11.60;;;5.20;99.90;;;5.84;100.00;99516.34;10307156;28;20510;-68
2024/02/18 04:30:53;;;;;;;12.40;11.20;;;5.10;99.90;;;5.74;100.00;99523.72;10305890;28;20245;-68
2024/02/18 04:35:56;;;;;;;12.57;11.27;;;5.00;99.90;;;5.66;100.00;99528.00;10306670;28;20239;-67
2024/02/18 04:41:00;;;;;;;12.93;11.63;;;4.90;99.90;;;5.37;100.00;99515.75;10306210;28;20231;-68
2024/02/18 04:46:05;;;;;;;12.97;11.70;;;4.70;99.90;;;5.39;100.00;99516.81;10306364;28;20619;-69
2024/02/18 04:51:08;;;;;;;11.70;10.70;;;4.70;99.90;;;5.36;100.00;99515.63;10306867;28;20851;-68
2024/02/18 04:56:12;;;;;;;13.87;11.53;;;4.70;99.90;;;5.43;100.00;99513.84;10301073;28;21929;-68
2024/02/18 05:01:16;;;;;;;13.60;12.20;;;4.80;99.90;;;5.41;100.00;99507.75;10310874;28;20241;-68
2024/02/18 05:06:20;;;;;;;18.80;13.80;;;4.80;99.90;;;5.52;100.00;99505.41;10313992;28;20230;-68
2024/02/18 05:11:23;;;;;;;22.53;14.03;;;4.90;99.90;;;5.56;100.00;99515.16;10310996;28;20251;-68
2024/02/18 05:16:28;;;;;;;24.20;14.70;;;5.00;99.90;;;5.65;100.00;99505.94;10309173;28;20465;-68
2024/02/18 05:21:31;;;;;;;35.33;14.53;;;4.90;99.90;;;5.62;100.00;99500.56;10312995;28;20235;-68
2024/02/18 05:26:34;;;;;;;24.43;13.73;;;4.80;99.90;;;5.61;100.00;99496.22;10309696;28;20328;-68
2024/02/18 05:31:39;;;;;;;15.00;12.10;;;4.80;99.90;;;5.59;100.00;99502.78;10313671;28;20244;-68
2024/02/18 05:36:43;;;;;;;23.73;12.57;;;4.80;99.90;;;5.39;100.00;99495.66;10311786;28;20242;-68
2024/02/18 05:41:46;;;;;;;37.73;13.03;;;4.60;99.90;;;5.18;100.00;99500.28;10310392;28;20228;-68
2024/02/18 05:46:51;;;;;;;14.83;12.27;;;4.50;99.90;;;5.11;100.00;99492.78;10308209;28;20231;-68
2024/02/18 05:51:55;;;;;;;18.00;12.70;;;4.40;99.90;;;5.16;100.00;99495.78;10310239;28;20318;-68
2024/02/18 05:56:58;;;;;;;29.13;13.43;;;4.50;99.90;;;5.10;100.00;99493.53;10309041;28;20227;-68
2024/02/18 06:02:02;;;;;;;15.13;12.60;;;4.40;99.90;;;5.00;100.00;99489.84;10310324;28;20866;-68
2024/02/18 06:07:06;;;;;;;13.87;12.17;;;4.30;99.90;;;5.07;100.00;99483.06;10311726;28;20312;-68
2024/02/18 06:12:09;;;;;;;64.33;13.50;;;4.40;99.90;;;4.84;100.00;99475.59;10308647;28;20260;-69
2024/02/18 06:17:14;;;;;;;15.27;11.63;;;4.20;99.90;;;4.95;100.00;99485.22;10308971;28;20235;-68
2024/02/18 06:22:17;;;;;;;21.00;12.73;;;4.30;99.90;;;4.86;100.00;99478.25;10310460;28;20231;-68
2024/02/18 06:27:20;;;;;;;46.63;13.93;;;4.20;99.90;;;4.57;100.00;99485.31;10308878;28;20243;-68
2024/02/18 06:32:25;;;;;;;14.60;12.03;;;4.00;99.90;;;4.39;100.00;99487.69;10307567;28;20231;-68
2024/02/18 06:37:28;;;;;;;42.60;14.37;;;3.90;99.90;;;4.36;100.00;99484.84;10310053;28;20241;-68
2024/02/18 06:42:31;;;;;;;20.40;11.63;;;3.90;99.90;;;4.32;100.00;99470.06;10308342;28;20231;-68
2024/02/18 06:47:36;;;;;;;36.43;13.47;;;3.90;99.90;;;4.47;100.00;99469.16;10308285;28;20230;-68
2024/02/18 06:52:39;;;;;;;14.90;13.20;;;4.00;99.90;;;4.58;100.00;99467.78;10309750;28;20293;-68
2024/02/18 06:57:44;;;;;;;16.60;12.63;;;4.10;99.90;;;4.72;100.00;99459.06;10306348;28;20605;-68
2024/02/18 07:02:49;;;;;;;19.63;12.90;;;4.20;99.90;;;4.91;100.00;99456.84;10307098;28;20227;-68
2024/02/18 07:07:52;;;;;;;18.50;13.20;;;4.40;99.90;;;5.02;100.00;99465.59;10309574;28;20235;-66
2024/02/18 07:12:55;;;;;;;14.17;12.63;;;4.40;99.90;;;5.17;100.00;99464.63;10298438;28;20230;-68
2024/02/18 07:18:00;;;;;;;27.37;14.33;;;4.50;99.90;;;5.11;100.00;99461.47;10305263;28;20223;-68
2024/02/18 07:23:04;;;;;;;19.97;13.50;;;4.50;99.90;;;5.14;100.00;99455.06;10305575;28;20219;-68
2024/02/18 07:28:07;;;;;;;38.87;14.83;;;4.50;99.90;;;5.18;100.00;99451.25;10302340;28;20237;-68
2024/02/18 07:33:12;;;;;;;16.97;11.60;;;4.50;99.90;;;5.27;100.00;99449.66;10307776;28;20357;-68
2024/02/18 07:38:15;;;;;;;15.03;12.43;;;4.50;99.90;;;5.35;100.00;99450.41;10306169;28;20233;-68
2024/02/18 07:43:18;;;;;;;14.77;13.17;;;4.70;99.90;;;5.45;100.00;99449.75;10306835;28;20234;-68
2024/02/18 07:48:23;;;;;;;16.47;12.93;;;4.80;99.90;;;5.60;100.00;99441.16;10303592;28;20707;-68
2024/02/18 07:53:26;;;;;;;36.03;15.47;;;4.90;99.90;;;5.60;100.00;99438.63;10306013;28;20234;-68
2024/02/18 07:58:30;;;;;;;14.43;12.90;;;4.90;99.90;;;5.93;100.00;99427.56;10303227;28;20235;-68
2024/02/18 08:03:34;;;;;;;14.70;13.30;;;5.10;99.90;;;5.99;100.00;99424.03;10305545;28;20231;-69
2024/02/18 08:08:37;;;;;;;14.07;12.43;;;5.20;99.90;;;6.10;100.00;99417.50;10302899;28;20245;-68
2024/02/18 08:13:40;;;;;;;14.10;12.80;;;5.40;99.90;;;6.48;100.00;99413.63;10305413;28;20235;-68
2024/02/18 08:18:45;;;;;;;17.70;13.50;;;5.60;99.90;;;6.63;100.00;99421.84;10301292;28;20239;-68
2024/02/18 08:23:48;;;;;;;14.63;13.27;;;5.80;99.90;;;6.77;100.00;99416.47;10306805;28;20352;-68
2024/02/18 08:28:52;;;;;;;14.07;12.77;;;5.90;99.90;;;6.93;100.00;99420.50;10303673;28;20223;-68
2024/02/18 08:33:57;;;;;;;13.57;12.37;;;6.20;99.90;;;7.65;100.00;99415.50;10309310;28;20241;-68
2024/02/18 08:39:00;;;;;;;14.13;12.83;;;6.80;99.90;;;8.06;100.00;99410.78;10310805;28;20231;-68
2024/02/18 08:44:04;;;;;;;14.17;12.87;;;7.20;99.90;;;8.26;100.00;99399.88;10311656;28;20627;-69
2024/02/18 08:49:08;;;;;;;13.40;12.17;;;7.40;99.90;;;8.64;96.89;99393.94;10309030;28;20223;-68
2024/02/18 08:54:12;;;;;;;14.33;12.93;;;7.80;99.90;;;8.77;97.42;99378.97;10315734;28;20234;-68
2024/02/18 08:59:15;;;;;;;15.90;14.30;;;7.90;99.90;;;9.00;97.32;99374.25;10309602;28;20706;-68
2024/02/18 09:04:19;;;;;;;16.10;14.50;;;8.20;99.90;;;9.36;97.10;99362.91;10309334;28;20238;-69
2024/02/18 09:09:23;;;;;;;17.17;15.57;;;8.60;99.90;;;9.67;95.99;99360.38;10305947;28;20235;-67
2024/02/18 09:14:26;;;;;;;15.23;13.90;;;9.00;99.90;;;10.09;94.80;99360.53;10305677;28;20296;-68
2024/02/18 09:19:30;;;;;;;14.27;12.98;;;9.50;99.90;;;10.52;92.22;99358.09;10306561;28;20757;-68
2024/02/18 09:24:34;;;;;;;14.07;12.77;;;9.70;99.90;;;10.81;89.07;99357.91;10308762;28;20767;-67
2024/02/18 09:29:38;;;;;;;14.23;13.02;;;9.90;99.90;;;10.66;90.81;99349.91;10305102;28;20341;-69
2024/02/18 09:34:42;;;;;;;13.85;12.55;;;9.80;99.90;;;10.70;90.22;99351.03;10311671;28;20242;-69
2024/02/18 09:39:45;;;;;;;13.30;12.20;;;9.80;99.90;;;10.78;89.78;99338.09;10311181;28;20235;-69
2024/02/18 09:44:49;;;;;;;12.38;11.15;;;9.90;99.90;;;11.16;88.93;99332.56;10312314;28;20972;-69
2024/02/18 09:49:54;;;;;;;12.77;11.55;;;10.50;99.90;;;11.52;87.85;99319.94;10312325;28;20230;-69
2024/02/18 09:54:59;;;;;;;12.18;11.07;;;10.80;99.90;;;11.60;88.12;99321.44;10308922;28;20231;-68
2024/02/18 10:00:02;;;;;;;12.25;11.18;;;10.80;99.90;;;11.88;86.15;99316.78;10308788;28;20227;-66
2024/02/18 10:05:08;;;;;;;11.52;10.43;;;11.10;99.90;;;12.04;85.00;99304.31;10311916;28;20215;-69
2024/02/18 10:10:12;;;;;;;11.95;10.90;;;11.30;99.90;;;12.21;84.43;99284.16;10304760;28;20377;-69
2024/02/18 10:15:16;;;;;;;10.80;9.77;;;11.60;99.90;;;12.48;81.90;99273.38;10309495;28;20654;-69
2024/02/18 10:20:21;;;;;;;11.70;10.50;;;11.80;99.90;;;12.77;81.42;99267.75;10304820;28;20226;-69
2024/02/18 10:25:24;;;;;;;11.45;10.45;;;12.00;99.90;;;12.89;78.76;99261.72;10312151;28;20241;-69
2024/02/18 10:30:28;;;;;;;11.88;10.68;;;12.20;99.90;;;12.96;79.72;99256.22;10314922;28;20314;-69
2024/02/18 10:35:33;;;;;;;10.20;9.20;;;12.10;99.90;;;13.05;76.01;99255.19;10314343;28;20235;-69
2024/02/18 10:40:40;;;;;;;9.32;8.52;;;12.30;99.90;;;13.16;77.94;99252.47;10310847;28;20235;-69
2024/02/18 10:45:45;;;;;;;9.82;9.02;;;12.30;99.90;;;13.41;75.38;99235.44;10314532;28;20231;-69
2024/02/18 10:50:50;;;;;;;10.10;9.20;;;12.50;99.90;;;13.35;75.79;99236.69;10312678;28;20250;-69
2024/02/18 10:56:03;;;;;;;9.30;8.48;;;12.50;99.90;;;13.54;74.14;99228.56;10311211;28;20231;-68
2024/02/18 11:01:12;;;;;;;9.52;8.65;;;12.70;99.90;;;13.69;73.65;99227.03;10313196;28;20223;-69
2024/02/18 11:06:18;;;;;;;9.25;8.38;;;12.70;99.90;;;13.81;69.67;99209.84;10309823;28;20223;-69
2024/02/18 11:11:22;;;;;;;7.60;6.90;;;13.00;99.90;;;13.97;69.76;99198.91;10311027;28;20611;-69
2024/02/18 11:16:26;;;;;;;7.70;6.95;;;13.20;99.90;;;14.08;69.40;99179.94;10316678;28;22289;-68
2024/02/18 11:21:32;;;;;;;6.95;6.25;;;13.30;99.90;;;14.24;65.86;99178.31;10311202;28;20231;-68
2024/02/18 11:26:35;;;;;;;7.10;6.50;;;13.50;99.90;;;14.40;63.50;99169.09;10310799;28;20649;-68
2024/02/18 11:31:39;;;;;;;5.85;5.35;;;13.50;99.90;;;14.67;61.60;99166.50;10313458;28;20401;-68
2024/02/18 11:36:43;;;;;;;5.53;5.03;;;13.80;99.90;;;14.63;61.27;99159.41;10312232;28;20230;-68
2024/02/18 11:41:46;;;;;;;6.25;5.45;;;13.80;99.90;;;14.86;61.54;99148.84;10312140;28;20863;-68
2024/02/18 11:46:50;;;;;;;6.40;4.72;;;13.90;99.90;;;14.91;57.59;99135.34;10313315;28;20623;-68
2024/02/18 11:51:54;;;;;;;5.20;4.80;;;14.10;99.90;;;14.92;57.98;99126.84;10315861;28;20238;-68
2024/02/18 11:56:58;;;;;;;4.18;3.88;;;14.00;99.90;;;15.10;55.04;99104.75;10312566;28;20346;-68
2024/02/18 12:02:02;;;;;;;4.18;3.78;;;14.20;99.90;;;14.94;55.88;99099.50;10313527;28;20229;-69
2024/02/18 12:07:07;;;;;;;4.75;4.35;;;14.10;99.90;;;15.24;53.46;99084.97;10312419;28;20241;-68
2024/02/18 12:12:11;;;;;;;4.63;4.22;;;14.40;99.90;;;15.14;55.39;99068.09;10320557;28;20314;-68
2024/02/18 12:17:14;;;;;;;3.63;3.33;;;14.20;99.90;;;15.08;54.13;99065.16;10321945;28;20724;-68
2024/02/18 12:22:23;;;;;;;4.95;4.45;;;14.10;99.90;;;15.09;54.07;99056.63;10316368;28;20223;-68
2024/02/18 12:27:26;;;;;;;4.30;3.90;;;14.20;99.90;;;15.13;53.53;99044.81;10318159;28;20817;-68
2024/02/18 12:32:29;;;;;;;4.57;4.18;;;14.40;99.90;;;14.92;54.93;99044.44;10321456;28;20231;-68
2024/02/18 12:37:35;;;;;;;4.50;4.10;;;14.10;99.90;;;14.85;54.66;99038.94;10317750;28;20720;-68
2024/02/18 12:42:39;;;;;;;3.47;3.17;;;13.90;99.90;;;14.83;55.81;99031.94;10319385;28;20231;-67
2024/02/18 12:48:02;;;;;;;3.70;3.50;;;14.00;99.90;;;14.84;56.18;99021.69;10319393;28;20258;-68
2024/02/18 12:53:06;;;;;;;3.83;3.53;;;14.00;99.90;;;15.16;54.04;99008.94;10319808;28;20655;-69
2024/02/18 12:58:10;;;;;;;3.97;3.67;;;14.20;99.90;;;14.94;55.86;99006.81;10318130;28;20223;-69
2024/02/18 13:03:18;;;;;;;4.55;4.15;;;14.00;99.90;;;15.02;55.11;98995.25;10321020;28;20242;-68
2024/02/18 13:08:23;;;;;;;4.22;3.92;;;14.10;99.90;;;14.93;56.84;98987.88;10317876;28;20684;-68
2024/02/18 13:13:28;;;;;;;4.20;3.80;;;14.00;99.90;;;15.06;54.83;98981.78;10317761;28;20234;-68
2024/02/18 13:18:31;;;;;;;3.78;3.47;;;14.10;99.90;;;14.94;55.94;98975.94;10317889;28;20239;-69
2024/02/18 13:23:40;;;;;;;4.40;4.10;;;14.00;99.90;;;14.98;56.32;98970.16;10317691;28;20226;-68
2024/02/18 13:28:43;;;;;;;6.00;4.53;;;14.00;99.90;;;15.01;56.70;98973.78;10318567;28;20657;-68
2024/02/18 13:33:46;;;;;;;4.05;3.75;;;14.10;99.90;;;14.96;56.82;98962.31;10316635;28;20231;-68
2024/02/18 13:38:51;;;;;;;3.55;3.25;;;14.00;99.90;;;14.94;56.83;98950.19;10317081;28;20584;-66
2024/02/18 13:43:54;;;;;;;3.85;3.55;;;14.00;99.90;;;15.00;57.13;98951.41;10320471;28;20695;-69
2024/02/18 13:48:57;;;;;;;4.10;3.80;;;14.00;99.90;;;15.29;55.24;98942.75;10313034;28;20227;-67
2024/02/18 13:54:02;;;;;;;3.97;3.58;;;14.20;99.90;;;14.99;57.39;98941.00;10316583;28;20559;-66
2024/02/18 13:59:05;;;;;;;4.60;4.30;;;14.00;99.90;;;15.13;55.84;98947.84;10300036;28;21018;-68
2024/02/18 14:04:09;;;;;;;4.50;4.10;;;14.10;99.90;;;15.01;57.51;98937.72;10317454;28;20242;-68
2024/02/18 14:09:13;;;;;;;4.00;3.63;;;14.00;99.90;;;14.89;59.08;98921.59;10307436;28;20241;-67
2024/02/18 14:14:16;;;;;;;4.68;4.28;;;13.90;99.90;;;14.85;58.61;98899.94;10295141;28;20619;-68
2024/02/18 14:19:20;;;;;;;4.18;3.88;;;13.80;99.90;;;14.64;58.89;98888.41;10306861;28;20814;-68
2024/02/18 14:24:25;;;;;;;3.90;3.60;;;13.70;99.90;;;14.81;58.41;98872.22;10307242;28;20714;-68
2024/02/18 14:29:28;;;;;;;4.63;4.15;;;14.00;99.90;;;14.69;58.26;98852.66;10303553;28;20384;-66
2024/02/18 14:34:32;;;;;;;4.07;3.67;;;13.80;99.90;;;14.66;59.25;98837.91;10303530;28;20231;-66
2024/02/18 14:39:37;;;;;;;4.90;4.50;;;13.70;99.90;;;14.67;57.62;98844.81;10288195;28;20224;-68
2024/02/18 14:44:40;;;;;;;4.10;3.80;;;13.70;99.90;;;14.56;58.70;98844.22;10275350;28;20874;-67
2024/02/18 14:49:45;;;;;;;4.53;4.13;;;13.60;99.90;;;14.43;60.39;98852.00;10303839;28;20241;-69
2024/02/18 14:54:52;;;;;;;4.45;4.03;;;13.60;99.90;;;14.37;61.12;98851.66;10303700;28;20732;-68
2024/02/18 14:59:56;;;;;;;5.60;5.20;;;13.50;99.90;;;14.46;61.60;98849.59;10306787;28;20261;-67
2024/02/18 15:04:59;;;;;;;5.97;5.47;;;13.40;99.90;;;14.42;60.50;98845.97;10301915;28;20743;-68
2024/02/18 15:10:05;;;;;;;6.22;5.63;;;13.40;99.90;;;14.37;61.97;98837.09;10289852;28;20721;-72
2024/02/18 15:15:09;;;;;;;5.80;5.30;;;13.30;99.90;;;14.37;61.71;98849.09;10309341;28;20606;-68
2024/02/18 15:20:12;;;;;;;6.35;5.82;;;13.30;99.90;;;14.01;64.15;98858.97;10307016;28;20896;-69
2024/02/18 15:25:17;;;;;;;5.53;5.03;;;13.10;99.90;;;13.87;65.11;98868.41;10303331;28;20723;-68
2024/02/18 15:30:20;;;;;;;5.70;5.22;;;13.00;99.90;;;13.79;65.38;98873.88;10302151;28;20305;-69
2024/02/18 15:35:23;;;;;;;6.95;6.35;;;12.90;99.90;;;13.73;65.79;98865.03;10305939;28;20231;-68
2024/02/18 15:40:28;;;;;;;5.07;4.75;;;12.90;99.90;;;13.64;66.70;98856.75;10303077;28;20738;-68
2024/02/18 15:45:32;;;;;;;6.97;6.38;;;12.80;99.90;;;13.59;68.12;98852.13;10277091;28;20286;-68
2024/02/18 15:50:35;;;;;;;7.00;6.45;;;12.70;99.90;;;13.61;67.58;98842.84;10263676;28;20234;-66
2024/02/18 15:55:40;;;;;;;7.70;7.10;;;12.70;99.90;;;13.69;67.95;98842.50;10285259;28;20258;-65
2024/02/18 16:01:00;;;;;;;9.23;8.43;;;12.70;99.90;;;13.65;67.41;98842.22;10302191;28;20223;-68
2024/02/18 16:06:05;;;;;;;11.40;10.38;;;12.70;99.90;;;13.26;70.83;98849.25;10293516;28;20262;-69
2024/02/18 16:11:10;;;;;;;8.65;7.93;;;12.50;99.90;;;13.15;71.46;98829.69;10300324;28;20602;-67
2024/02/18 16:16:16;;;;;;;12.38;11.25;;;12.30;99.90;;;13.01;74.03;98816.88;10301670;28;20232;-69
2024/02/18 16:21:19;;;;;;;10.90;9.93;;;12.10;99.90;;;12.91;74.16;98829.03;10302560;28;21731;-68
2024/02/18 16:26:24;;;;;;;13.52;12.18;;;12.00;99.90;;;12.60;75.17;98817.69;10300977;28;20242;-67
2024/02/18 16:31:27;;;;;;;15.80;14.20;;;11.80;99.90;;;12.47;77.82;98802.28;10305852;28;20231;-66
2024/02/18 16:36:30;;;;;;;15.48;13.50;;;11.70;99.90;;;12.37;77.89;98794.81;10304032;28;20231;-68
2024/02/18 16:41:38;;;;;;;15.52;13.95;;;11.60;99.90;;;12.28;79.23;98791.66;10305545;28;22272;-67
2024/02/18 16:46:41;;;;;;;14.18;12.70;;;11.50;99.90;;;12.18;80.05;98785.03;10304826;28;20235;-67
2024/02/18 16:51:44;;;;;;;13.27;12.02;;;11.40;99.90;;;12.06;81.27;98769.72;10311523;28;20734;-67
2024/02/18 16:56:50;;;;;;;11.85;10.85;;;11.30;99.90;;;12.01;81.34;98806.09;10322165;28;20238;-67
2024/02/18 17:01:53;;;;;;;11.75;10.65;;;11.20;99.90;;;11.89;83.07;98806.16;10325313;28;20231;-67
2024/02/18 17:06:57;;;;;;;12.27;11.07;;;11.10;99.90;;;11.83;83.28;98800.59;10323995;28;20723;-67
2024/02/18 17:12:02;;;;;;;13.27;11.95;;;11.00;99.90;;;11.77;83.57;98820.69;10313724;28;20238;-68
2024/02/18 17:17:05;;;;;;;10.52;9.63;;;10.90;99.90;;;11.67;84.07;98816.56;10320917;28;20235;-67
2024/02/18 17:22:09;;;;;;;12.48;11.32;;;10.90;99.90;;;11.57;84.07;98837.25;10315092;28;20319;-68
2024/02/18 17:27:14;;;;;;;11.80;10.63;;;10.80;99.90;;;11.50;85.52;98830.78;10316807;28;20235;-67
2024/02/18 17:32:17;;;;;;;17.27;15.57;;;10.70;99.90;;;11.40;86.26;98836.94;10322042;28;20234;-68
2024/02/18 17:37:20;;;;;;;16.10;14.15;;;10.60;99.90;;;11.31;86.96;98843.13;10323244;28;20231;-69
2024/02/18 17:42:24;;;;;;;13.40;12.10;;;10.50;99.90;;;11.30;86.77;98831.06;10310662;28;20615;-68
2024/02/18 17:47:28;;;;;;;12.25;11.13;;;10.50;99.90;;;11.25;86.86;98834.22;10314911;28;20223;-68
2024/02/18 17:52:31;;;;;;;10.55;9.65;;;10.50;99.90;;;11.19;87.45;98838.91;10316604;28;20290;-66
2024/02/18 17:57:38;;;;;;;10.88;9.82;;;10.40;99.90;;;11.10;88.53;98847.59;10308888;28;20265;-67
2024/02/18 18:02:41;;;;;;;10.43;9.45;;;10.30;99.90;;;11.02;88.78;98839.38;10307585;28;20289;-69
2024/02/18 18:07:44;;;;;;;10.30;9.40;;;10.20;99.90;;;10.99;89.39;98844.28;10304314;28;20640;-67
2024/02/18 18:12:50;;;;;;;10.40;9.50;;;10.20;99.90;;;10.99;89.60;98827.28;10301858;28;20231;-67
2024/02/18 18:17:54;;;;;;;10.88;9.90;;;10.20;99.90;;;10.95;89.71;98816.69;10306243;28;20326;-67
2024/02/18 18:22:57;;;;;;;12.43;11.30;;;10.20;99.90;;;10.94;90.68;98802.16;10306980;28;20277;-67
2024/02/18 18:28:02;;;;;;;13.02;11.70;;;10.20;99.90;;;10.99;90.46;98813.59;10306641;28;20227;-67
2024/02/18 18:33:05;;;;;;;11.80;10.70;;;10.10;99.90;;;10.90;91.19;98812.91;10303519;28;20231;-67
2024/02/18 18:38:08;;;;;;;14.80;13.40;;;10.10;99.90;;;10.89;91.49;98818.81;10307312;28;20227;-67
2024/02/18 18:43:13;;;;;;;15.65;14.15;;;10.10;99.90;;;10.92;91.17;98819.03;10305711;28;20611;-66
2024/02/18 18:48:16;;;;;;;15.05;13.65;;;10.20;99.90;;;10.95;91.45;98824.38;10306956;28;20242;-66
2024/02/18 18:53:21;;;;;;;14.07;12.77;;;10.10;99.90;;;10.97;92.47;98827.94;10308571;28;20737;-68
2024/02/18 18:58:26;;;;;;;12.73;11.43;;;10.20;99.90;;;10.87;92.18;98828.03;10307806;28;20234;-67
2024/02/18 19:03:29;;;;;;;13.20;11.95;;;10.10;99.90;;;10.78;92.37;98829.16;10307184;28;20241;-66
2024/02/18 19:08:32;;;;;;;13.68;12.35;;;10.10;99.90;;;10.80;92.61;98827.63;10304120;28;20227;-68
2024/02/18 19:13:37;;;;;;;13.00;11.68;;;10.00;99.90;;;10.77;92.53;98837.63;10306416;28;20237;-66
2024/02/18 19:18:45;;;;;;;14.20;12.90;;;10.00;99.90;;;10.75;93.54;98843.41;10304537;28;20750;-67
2024/02/18 19:23:49;;;;;;;14.43;13.02;;;10.00;99.90;;;10.74;94.00;98839.97;10304284;28;20235;-67
2024/02/18 19:28:53;;;;;;;13.45;12.15;;;10.00;99.90;;;10.76;94.31;98846.09;10305535;28;20735;-67
2024/02/18 19:33:57;;;;;;;16.45;14.77;;;10.00;99.90;;;10.74;94.10;98842.53;10309224;28;20499;-66
2024/02/18 19:39:03;;;;;;;15.40;13.93;;;9.90;99.90;;;10.66;95.07;98838.50;10306419;28;20326;-67
2024/02/18 19:44:08;;;;;;;14.73;13.43;;;10.00;99.90;;;10.64;95.33;98828.94;10307833;28;20289;-67
2024/02/18 19:49:11;;;;;;;14.48;13.07;;;9.90;99.90;;;10.50;97.35;98820.28;10307198;28;20227;-66
2024/02/18 19:54:15;;;;;;;27.35;23.65;;;9.90;99.90;;;10.45;99.90;98826.75;10299927;28;20347;-66
2024/02/18 19:59:22;;;;;;;23.52;21.02;;;9.90;99.90;;;10.31;100.00;98821.50;10305917;28;20235;-67
2024/02/18 20:04:25;;;;;;;18.33;16.55;;;9.70;99.90;;;10.22;100.00;98817.38;10303148;28;20243;-67
2024/02/18 20:09:32;;;;;;;18.77;16.42;;;9.70;99.90;;;10.17;100.00;98824.69;10302685;28;20230;-66
2024/02/18 20:14:40;;;;;;;17.50;15.50;;;9.60;99.90;;;10.01;100.00;98825.19;10304789;28;20230;-66
2024/02/18 20:19:44;;;;;;;16.80;14.68;;;9.50;99.90;;;9.95;100.00;98818.75;10303012;28;20239;-68
2024/02/18 20:24:48;;;;;;;15.32;13.82;;;9.50;99.90;;;9.85;100.00;98820.59;10301888;28;20652;-67
2024/02/18 20:29:53;;;;;;;15.63;14.13;;;9.30;99.90;;;9.83;100.00;98819.59;10305847;28;20230;-66
2024/02/18 20:34:57;;;;;;;14.80;13.30;;;9.30;99.90;;;9.87;100.00;98813.97;10307348;28;20651;-67
2024/02/18 20:40:09;;;;;;;17.13;15.43;;;9.20;99.90;;;9.79;100.00;98825.25;10312778;28;20223;-66
2024/02/18 20:45:13;;;;;;;17.08;15.35;;;9.20;99.90;;;9.72;100.00;98829.78;10312386;28;20707;-66
2024/02/18 20:50:17;;;;;;;15.95;14.27;;;9.10;99.90;;;9.70;100.00;98824.56;10311420;28;20223;-67
2024/02/18 20:55:22;;;;;;;15.38;13.93;;;9.10;99.90;;;9.66;100.00;98823.41;10307154;28;20234;-66